< < Back
Terminal Aerodrome Forecast


Current Version              Previous Versions:   1  2  3  4  5  6  7  8  9  

Terminal Aerodrome Forecast

645
FTUS44 KOHX 031121
TAFBNA
TAF
KBNA 031121Z 0312/0412 23008KT P6SM VCSH OVC011
     FM031800 23008KT P6SM VCTS BKN035CB OVC250
     FM040000 22007KT P6SM VCSH OVC020
     FM040600 23005KT 4SM BR OVC007=

Latest METAR

832
SAUS70 KWBC 040300 RRB
MTRBNA
METAR KBNA 040253Z 22003KT 10SM BKN022 BKN029 OVC043 23/21 A2994 RMK AO2
SLP131 T02330206 53010 $


USA.gov is the U.S. government's official web portal to all federal, state and local government web resources and services.